sensor_id;sensor_type;location;lat;lon;timestamp;P1;durP1;ratioP1;P2;durP2;ratioP2
52858;SDS011;38721;53.098;6.596;2023-10-08T00:02:18;1.00;;;0.90;;
52858;SDS011;38721;53.098;6.596;2023-10-08T00:04:47;1.20;;;1.10;;
52858;SDS011;38721;53.098;6.596;2023-10-08T00:07:16;1.42;;;1.17;;
52858;SDS011;38721;53.098;6.596;2023-10-08T00:09:47;1.70;;;1.30;;
52858;SDS011;38721;53.098;6.596;2023-10-08T00:12:19;2.40;;;1.20;;
52858;SDS011;38721;53.098;6.596;2023-10-08T00:14:46;1.30;;;1.15;;
52858;SDS011;38721;53.098;6.596;2023-10-08T00:17:15;1.92;;;1.20;;
52858;SDS011;38721;53.098;6.596;2023-10-08T00:19:42;1.48;;;1.25;;
52858;SDS011;38721;53.098;6.596;2023-10-08T00:22:11;1.05;;;0.95;;
52858;SDS011;38721;53.098;6.596;2023-10-08T00:24:39;2.45;;;1.10;;
52858;SDS011;38721;53.098;6.596;2023-10-08T00:27:09;1.50;;;1.02;;
52858;SDS011;38721;53.098;6.596;2023-10-08T00:29:35;1.20;;;1.00;;
52858;SDS011;38721;53.098;6.596;2023-10-08T00:32:05;2.50;;;1.10;;
52858;SDS011;38721;53.098;6.596;2023-10-08T00:34:42;1.55;;;0.70;;
52858;SDS011;38721;53.098;6.596;2023-10-08T00:37:11;1.98;;;0.60;;
52858;SDS011;38721;53.098;6.596;2023-10-08T00:39:39;1.25;;;0.70;;
52858;SDS011;38721;53.098;6.596;2023-10-08T00:42:06;0.75;;;0.45;;
52858;SDS011;38721;53.098;6.596;2023-10-08T00:44:33;2.22;;;0.40;;
52858;SDS011;38721;53.098;6.596;2023-10-08T00:47:16;1.70;;;0.52;;
52858;SDS011;38721;53.098;6.596;2023-10-08T00:49:43;1.00;;;0.50;;
52858;SDS011;38721;53.098;6.596;2023-10-08T00:52:09;1.10;;;0.55;;
52858;SDS011;38721;53.098;6.596;2023-10-08T00:54:36;0.70;;;0.47;;
52858;SDS011;38721;53.098;6.596;2023-10-08T00:57:34;0.75;;;0.50;;
52858;SDS011;38721;53.098;6.596;2023-10-08T01:00:01;1.38;;;0.60;;
52858;SDS011;38721;53.098;6.596;2023-10-08T01:02:31;1.52;;;0.70;;
52858;SDS011;38721;53.098;6.596;2023-10-08T01:05:14;2.08;;;0.77;;
52858;SDS011;38721;53.098;6.596;2023-10-08T01:07:45;1.80;;;0.60;;
52858;SDS011;38721;53.098;6.596;2023-10-08T01:10:18;0.85;;;0.38;;
52858;SDS011;38721;53.098;6.596;2023-10-08T01:12:49;1.27;;;0.70;;
52858;SDS011;38721;53.098;6.596;2023-10-08T01:15:32;3.67;;;0.65;;
52858;SDS011;38721;53.098;6.596;2023-10-08T01:18:01;1.33;;;0.70;;
52858;SDS011;38721;53.098;6.596;2023-10-08T01:20:39;2.25;;;0.60;;
52858;SDS011;38721;53.098;6.596;2023-10-08T01:23:13;2.67;;;0.75;;
52858;SDS011;38721;53.098;6.596;2023-10-08T01:25:42;0.68;;;0.60;;
52858;SDS011;38721;53.098;6.596;2023-10-08T01:28:15;2.28;;;0.77;;
52858;SDS011;38721;53.098;6.596;2023-10-08T01:30:51;0.52;;;0.50;;
52858;SDS011;38721;53.098;6.596;2023-10-08T01:33:22;2.25;;;0.90;;
52858;SDS011;38721;53.098;6.596;2023-10-08T01:35:52;1.45;;;0.70;;
52858;SDS011;38721;53.098;6.596;2023-10-08T01:38:18;1.40;;;0.82;;
52858;SDS011;38721;53.098;6.596;2023-10-08T01:40:48;1.52;;;0.90;;
52858;SDS011;38721;53.098;6.596;2023-10-08T01:43:18;2.55;;;1.00;;
52858;SDS011;38721;53.098;6.596;2023-10-08T01:45:45;3.58;;;1.05;;
52858;SDS011;38721;53.098;6.596;2023-10-08T01:48:15;1.10;;;0.70;;
52858;SDS011;38721;53.098;6.596;2023-10-08T01:50:48;1.23;;;0.63;;
52858;SDS011;38721;53.098;6.596;2023-10-08T01:53:15;1.88;;;0.73;;
52858;SDS011;38721;53.098;6.596;2023-10-08T01:55:44;1.77;;;1.00;;
52858;SDS011;38721;53.098;6.596;2023-10-08T01:58:13;1.27;;;0.70;;
52858;SDS011;38721;53.098;6.596;2023-10-08T02:00:47;3.75;;;0.88;;
52858;SDS011;38721;53.098;6.596;2023-10-08T02:03:14;1.95;;;1.08;;
52858;SDS011;38721;53.098;6.596;2023-10-08T02:05:42;1.15;;;0.85;;
52858;SDS011;38721;53.098;6.596;2023-10-08T02:08:08;1.08;;;0.80;;
52858;SDS011;38721;53.098;6.596;2023-10-08T02:10:35;1.13;;;1.00;;
52858;SDS011;38721;53.098;6.596;2023-10-08T02:13:03;2.75;;;1.05;;
52858;SDS011;38721;53.098;6.596;2023-10-08T02:15:30;1.48;;;1.30;;
52858;SDS011;38721;53.098;6.596;2023-10-08T02:17:55;3.40;;;1.30;;
52858;SDS011;38721;53.098;6.596;2023-10-08T02:20:22;2.55;;;1.20;;
52858;SDS011;38721;53.098;6.596;2023-10-08T02:22:47;2.72;;;1.33;;
52858;SDS011;38721;53.098;6.596;2023-10-08T02:25:16;2.92;;;0.95;;
52858;SDS011;38721;53.098;6.596;2023-10-08T02:27:43;1.45;;;1.20;;
52858;SDS011;38721;53.098;6.596;2023-10-08T02:30:09;2.85;;;1.00;;
52858;SDS011;38721;53.098;6.596;2023-10-08T02:32:37;1.05;;;0.95;;
52858;SDS011;38721;53.098;6.596;2023-10-08T02:35:05;3.20;;;1.30;;
52858;SDS011;38721;53.098;6.596;2023-10-08T02:37:31;5.53;;;1.30;;
52858;SDS011;38721;53.098;6.596;2023-10-08T02:39:56;2.15;;;1.17;;
52858;SDS011;38721;53.098;6.596;2023-10-08T02:42:22;2.63;;;1.40;;
52858;SDS011;38721;53.098;6.596;2023-10-08T02:44:49;2.85;;;1.38;;
52858;SDS011;38721;53.098;6.596;2023-10-08T02:47:16;2.40;;;1.17;;
52858;SDS011;38721;53.098;6.596;2023-10-08T02:49:45;3.60;;;1.40;;
52858;SDS011;38721;53.098;6.596;2023-10-08T02:52:13;3.75;;;1.60;;
52858;SDS011;38721;53.098;6.596;2023-10-08T02:54:40;2.53;;;1.60;;
52858;SDS011;38721;53.098;6.596;2023-10-08T02:57:06;1.77;;;1.52;;
52858;SDS011;38721;53.098;6.596;2023-10-08T02:59:39;1.70;;;1.42;;
52858;SDS011;38721;53.098;6.596;2023-10-08T03:02:12;1.90;;;1.30;;
52858;SDS011;38721;53.098;6.596;2023-10-08T03:04:44;1.58;;;1.20;;
52858;SDS011;38721;53.098;6.596;2023-10-08T03:07:11;1.65;;;1.48;;
52858;SDS011;38721;53.098;6.596;2023-10-08T03:09:50;2.85;;;1.45;;
52858;SDS011;38721;53.098;6.596;2023-10-08T03:12:28;2.10;;;1.90;;
52858;SDS011;38721;53.098;6.596;2023-10-08T03:14:57;1.95;;;1.40;;
52858;SDS011;38721;53.098;6.596;2023-10-08T03:17:29;2.67;;;1.63;;
52858;SDS011;38721;53.098;6.596;2023-10-08T03:19:55;2.83;;;1.65;;
52858;SDS011;38721;53.098;6.596;2023-10-08T03:22:47;2.42;;;1.52;;
52858;SDS011;38721;53.098;6.596;2023-10-08T03:25:14;2.38;;;1.60;;
52858;SDS011;38721;53.098;6.596;2023-10-08T03:27:42;3.53;;;1.90;;
52858;SDS011;38721;53.098;6.596;2023-10-08T03:30:08;2.33;;;1.77;;
52858;SDS011;38721;53.098;6.596;2023-10-08T03:32:40;3.80;;;1.63;;
52858;SDS011;38721;53.098;6.596;2023-10-08T03:35:07;2.67;;;1.85;;
52858;SDS011;38721;53.098;6.596;2023-10-08T03:37:37;4.63;;;1.80;;
52858;SDS011;38721;53.098;6.596;2023-10-08T03:40:10;2.75;;;1.70;;
52858;SDS011;38721;53.098;6.596;2023-10-08T03:43:07;2.30;;;1.75;;
52858;SDS011;38721;53.098;6.596;2023-10-08T03:45:40;3.25;;;1.90;;
52858;SDS011;38721;53.098;6.596;2023-10-08T03:48:24;5.38;;;1.92;;
52858;SDS011;38721;53.098;6.596;2023-10-08T03:50:50;2.08;;;1.80;;
52858;SDS011;38721;53.098;6.596;2023-10-08T03:53:25;3.47;;;2.05;;
52858;SDS011;38721;53.098;6.596;2023-10-08T03:55:57;3.80;;;1.90;;
52858;SDS011;38721;53.098;6.596;2023-10-08T03:58:26;3.55;;;2.33;;
52858;SDS011;38721;53.098;6.596;2023-10-08T04:00:56;3.47;;;2.10;;
52858;SDS011;38721;53.098;6.596;2023-10-08T04:03:37;4.55;;;2.08;;
52858;SDS011;38721;53.098;6.596;2023-10-08T04:06:21;4.40;;;2.33;;
52858;SDS011;38721;53.098;6.596;2023-10-08T04:08:57;3.33;;;2.10;;
52858;SDS011;38721;53.098;6.596;2023-10-08T04:11:37;3.70;;;2.30;;
52858;SDS011;38721;53.098;6.596;2023-10-08T04:14:16;3.47;;;2.22;;
52858;SDS011;38721;53.098;6.596;2023-10-08T04:16:43;4.53;;;2.33;;
52858;SDS011;38721;53.098;6.596;2023-10-08T04:19:09;6.75;;;2.45;;
52858;SDS011;38721;53.098;6.596;2023-10-08T04:21:35;5.47;;;1.77;;
52858;SDS011;38721;53.098;6.596;2023-10-08T04:24:07;1.83;;;1.52;;
52858;SDS011;38721;53.098;6.596;2023-10-08T04:26:34;6.05;;;1.50;;
52858;SDS011;38721;53.098;6.596;2023-10-08T04:29:01;2.00;;;1.45;;
52858;SDS011;38721;53.098;6.596;2023-10-08T04:31:32;3.65;;;1.42;;
52858;SDS011;38721;53.098;6.596;2023-10-08T04:34:09;2.85;;;1.83;;
52858;SDS011;38721;53.098;6.596;2023-10-08T04:36:45;6.10;;;2.00;;
52858;SDS011;38721;53.098;6.596;2023-10-08T04:39:11;2.35;;;1.65;;
52858;SDS011;38721;53.098;6.596;2023-10-08T04:41:42;5.22;;;2.05;;
52858;SDS011;38721;53.098;6.596;2023-10-08T04:44:08;3.00;;;1.58;;
52858;SDS011;38721;53.098;6.596;2023-10-08T04:46:42;3.58;;;1.90;;
52858;SDS011;38721;53.098;6.596;2023-10-08T04:49:15;5.45;;;1.80;;
52858;SDS011;38721;53.098;6.596;2023-10-08T04:51:57;4.65;;;1.75;;
52858;SDS011;38721;53.098;6.596;2023-10-08T04:54:28;2.60;;;1.75;;
52858;SDS011;38721;53.098;6.596;2023-10-08T04:56:57;6.65;;;1.70;;
52858;SDS011;38721;53.098;6.596;2023-10-08T04:59:30;3.75;;;1.92;;
52858;SDS011;38721;53.098;6.596;2023-10-08T05:02:05;4.57;;;1.60;;
52858;SDS011;38721;53.098;6.596;2023-10-08T05:05:11;4.60;;;2.10;;
52858;SDS011;38721;53.098;6.596;2023-10-08T05:07:37;2.50;;;1.60;;
52858;SDS011;38721;53.098;6.596;2023-10-08T05:10:20;5.00;;;1.88;;
52858;SDS011;38721;53.098;6.596;2023-10-08T05:12:49;5.47;;;1.67;;
52858;SDS011;38721;53.098;6.596;2023-10-08T05:15:43;4.63;;;1.70;;
52858;SDS011;38721;53.098;6.596;2023-10-08T05:21:50;4.10;;;1.88;;
52858;SDS011;38721;53.098;6.596;2023-10-08T05:24:36;3.67;;;1.95;;
52858;SDS011;38721;53.098;6.596;2023-10-08T05:27:16;3.33;;;1.90;;
52858;SDS011;38721;53.098;6.596;2023-10-08T05:30:02;2.85;;;1.90;;
52858;SDS011;38721;53.098;6.596;2023-10-08T05:32:47;7.95;;;2.38;;
52858;SDS011;38721;53.098;6.596;2023-10-08T05:35:33;4.30;;;1.95;;
52858;SDS011;38721;53.098;6.596;2023-10-08T05:38:13;4.17;;;1.57;;
52858;SDS011;38721;53.098;6.596;2023-10-08T05:40:55;3.85;;;1.88;;
52858;SDS011;38721;53.098;6.596;2023-10-08T05:43:26;2.20;;;1.67;;
52858;SDS011;38721;53.098;6.596;2023-10-08T05:46:09;4.55;;;1.88;;
52858;SDS011;38721;53.098;6.596;2023-10-08T05:48:52;3.45;;;1.80;;
52858;SDS011;38721;53.098;6.596;2023-10-08T05:51:40;5.03;;;2.00;;
52858;SDS011;38721;53.098;6.596;2023-10-08T05:54:21;2.00;;;1.50;;
52858;SDS011;38721;53.098;6.596;2023-10-08T05:59:34;2.40;;;1.75;;
52858;SDS011;38721;53.098;6.596;2023-10-08T06:02:07;2.83;;;1.70;;
52858;SDS011;38721;53.098;6.596;2023-10-08T06:04:53;2.72;;;1.80;;
52858;SDS011;38721;53.098;6.596;2023-10-08T06:07:37;4.63;;;1.80;;
52858;SDS011;38721;53.098;6.596;2023-10-08T06:10:19;4.53;;;1.90;;
52858;SDS011;38721;53.098;6.596;2023-10-08T06:15:37;4.47;;;1.90;;
52858;SDS011;38721;53.098;6.596;2023-10-08T06:18:20;2.97;;;1.90;;
52858;SDS011;38721;53.098;6.596;2023-10-08T06:20:54;5.68;;;1.88;;
52858;SDS011;38721;53.098;6.596;2023-10-08T06:23:23;3.85;;;1.80;;
52858;SDS011;38721;53.098;6.596;2023-10-08T06:25:50;5.50;;;1.98;;
52858;SDS011;38721;53.098;6.596;2023-10-08T06:28:24;3.55;;;1.60;;
52858;SDS011;38721;53.098;6.596;2023-10-08T06:30:51;2.47;;;1.60;;
52858;SDS011;38721;53.098;6.596;2023-10-08T06:33:25;4.32;;;1.80;;
52858;SDS011;38721;53.098;6.596;2023-10-08T06:35:56;2.90;;;1.50;;
52858;SDS011;38721;53.098;6.596;2023-10-08T06:38:31;3.20;;;1.60;;
52858;SDS011;38721;53.098;6.596;2023-10-08T06:40:58;3.03;;;1.83;;
52858;SDS011;38721;53.098;6.596;2023-10-08T06:43:35;4.78;;;2.10;;
52858;SDS011;38721;53.098;6.596;2023-10-08T06:46:02;4.03;;;1.92;;
52858;SDS011;38721;53.098;6.596;2023-10-08T06:48:32;4.85;;;1.80;;
52858;SDS011;38721;53.098;6.596;2023-10-08T06:50:59;4.85;;;2.00;;
52858;SDS011;38721;53.098;6.596;2023-10-08T06:53:33;5.10;;;1.75;;
52858;SDS011;38721;53.098;6.596;2023-10-08T06:56:02;4.50;;;1.90;;
52858;SDS011;38721;53.098;6.596;2023-10-08T06:58:31;4.22;;;2.00;;
52858;SDS011;38721;53.098;6.596;2023-10-08T07:01:00;4.80;;;2.38;;
52858;SDS011;38721;53.098;6.596;2023-10-08T07:03:34;4.40;;;2.20;;
52858;SDS011;38721;53.098;6.596;2023-10-08T07:06:01;3.17;;;1.90;;
52858;SDS011;38721;53.098;6.596;2023-10-08T07:08:42;3.72;;;1.98;;
52858;SDS011;38721;53.098;6.596;2023-10-08T07:11:12;5.32;;;2.05;;
52858;SDS011;38721;53.098;6.596;2023-10-08T07:13:38;5.22;;;2.30;;
52858;SDS011;38721;53.098;6.596;2023-10-08T07:16:05;6.60;;;2.03;;
52858;SDS011;38721;53.098;6.596;2023-10-08T07:18:42;4.55;;;2.22;;
52858;SDS011;38721;53.098;6.596;2023-10-08T07:21:17;3.75;;;2.05;;
52858;SDS011;38721;53.098;6.596;2023-10-08T07:23:57;6.70;;;2.38;;
52858;SDS011;38721;53.098;6.596;2023-10-08T07:26:28;3.65;;;1.80;;
52858;SDS011;38721;53.098;6.596;2023-10-08T07:29:05;4.20;;;1.50;;
52858;SDS011;38721;53.098;6.596;2023-10-08T07:31:35;3.72;;;1.50;;
52858;SDS011;38721;53.098;6.596;2023-10-08T07:34:02;4.80;;;1.98;;
52858;SDS011;38721;53.098;6.596;2023-10-08T07:36:41;6.18;;;1.65;;
52858;SDS011;38721;53.098;6.596;2023-10-08T07:39:08;6.25;;;1.60;;
52858;SDS011;38721;53.098;6.596;2023-10-08T07:41:47;5.22;;;1.80;;
52858;SDS011;38721;53.098;6.596;2023-10-08T07:44:13;5.78;;;1.77;;
52858;SDS011;38721;53.098;6.596;2023-10-08T07:46:39;5.30;;;1.30;;
52858;SDS011;38721;53.098;6.596;2023-10-08T07:49:04;4.30;;;1.30;;
52858;SDS011;38721;53.098;6.596;2023-10-08T07:51:30;10.43;;;1.60;;
52858;SDS011;38721;53.098;6.596;2023-10-08T07:53:56;5.00;;;1.30;;
52858;SDS011;38721;53.098;6.596;2023-10-08T07:56:22;9.60;;;1.80;;
52858;SDS011;38721;53.098;6.596;2023-10-08T07:58:49;5.97;;;1.35;;
52858;SDS011;38721;53.098;6.596;2023-10-08T08:01:20;5.47;;;1.63;;
52858;SDS011;38721;53.098;6.596;2023-10-08T08:03:49;5.45;;;1.50;;
52858;SDS011;38721;53.098;6.596;2023-10-08T08:06:16;7.10;;;1.55;;
52858;SDS011;38721;53.098;6.596;2023-10-08T08:08:41;6.35;;;1.30;;
52858;SDS011;38721;53.098;6.596;2023-10-08T08:11:09;5.10;;;1.60;;
52858;SDS011;38721;53.098;6.596;2023-10-08T08:13:46;5.78;;;1.73;;
52858;SDS011;38721;53.098;6.596;2023-10-08T08:16:11;5.70;;;1.70;;
52858;SDS011;38721;53.098;6.596;2023-10-08T08:18:49;4.18;;;1.20;;
52858;SDS011;38721;53.098;6.596;2023-10-08T08:21:17;5.35;;;1.30;;
52858;SDS011;38721;53.098;6.596;2023-10-08T08:23:47;4.07;;;1.42;;
52858;SDS011;38721;53.098;6.596;2023-10-08T08:26:17;6.97;;;1.90;;
52858;SDS011;38721;53.098;6.596;2023-10-08T08:29:04;6.90;;;1.20;;
52858;SDS011;38721;53.098;6.596;2023-10-08T08:31:34;3.00;;;1.00;;
52858;SDS011;38721;53.098;6.596;2023-10-08T08:34:01;6.65;;;1.40;;
52858;SDS011;38721;53.098;6.596;2023-10-08T08:36:29;4.55;;;1.80;;
52858;SDS011;38721;53.098;6.596;2023-10-08T08:38:57;5.40;;;1.30;;
52858;SDS011;38721;53.098;6.596;2023-10-08T08:41:23;5.63;;;0.93;;
52858;SDS011;38721;53.098;6.596;2023-10-08T08:43:52;4.88;;;1.48;;
52858;SDS011;38721;53.098;6.596;2023-10-08T08:46:33;2.97;;;1.00;;
52858;SDS011;38721;53.098;6.596;2023-10-08T08:49:03;5.32;;;1.08;;
52858;SDS011;38721;53.098;6.596;2023-10-08T08:51:32;3.05;;;0.90;;
52858;SDS011;38721;53.098;6.596;2023-10-08T08:54:00;4.72;;;1.15;;
52858;SDS011;38721;53.098;6.596;2023-10-08T08:56:31;8.93;;;1.10;;
52858;SDS011;38721;53.098;6.596;2023-10-08T08:59:04;4.53;;;1.15;;
52858;SDS011;38721;53.098;6.596;2023-10-08T09:01:30;4.75;;;1.45;;
52858;SDS011;38721;53.098;6.596;2023-10-08T09:04:01;4.28;;;1.08;;
52858;SDS011;38721;53.098;6.596;2023-10-08T09:06:31;6.18;;;1.45;;
52858;SDS011;38721;53.098;6.596;2023-10-08T09:09:01;7.35;;;1.25;;
52858;SDS011;38721;53.098;6.596;2023-10-08T09:11:46;2.63;;;0.88;;
52858;SDS011;38721;53.098;6.596;2023-10-08T09:14:23;8.15;;;1.27;;
52858;SDS011;38721;53.098;6.596;2023-10-08T09:16:53;4.22;;;1.10;;
52858;SDS011;38721;53.098;6.596;2023-10-08T09:19:19;8.75;;;1.08;;
52858;SDS011;38721;53.098;6.596;2023-10-08T09:24:33;3.75;;;1.02;;
52858;SDS011;38721;53.098;6.596;2023-10-08T09:27:11;6.68;;;1.60;;
52858;SDS011;38721;53.098;6.596;2023-10-08T09:29:40;5.38;;;1.50;;
52858;SDS011;38721;53.098;6.596;2023-10-08T09:32:11;6.68;;;1.30;;
52858;SDS011;38721;53.098;6.596;2023-10-08T09:34:48;5.85;;;1.45;;
52858;SDS011;38721;53.098;6.596;2023-10-08T09:37:16;5.20;;;1.48;;
52858;SDS011;38721;53.098;6.596;2023-10-08T09:39:43;4.70;;;1.58;;
52858;SDS011;38721;53.098;6.596;2023-10-08T09:42:11;5.03;;;1.35;;
52858;SDS011;38721;53.098;6.596;2023-10-08T09:44:39;6.32;;;2.10;;
52858;SDS011;38721;53.098;6.596;2023-10-08T09:52:02;4.13;;;1.50;;
52858;SDS011;38721;53.098;6.596;2023-10-08T09:54:31;5.50;;;1.23;;
52858;SDS011;38721;53.098;6.596;2023-10-08T09:57:11;3.67;;;1.27;;
52858;SDS011;38721;53.098;6.596;2023-10-08T09:59:37;4.65;;;1.45;;
52858;SDS011;38721;53.098;6.596;2023-10-08T10:02:06;2.92;;;1.65;;
52858;SDS011;38721;53.098;6.596;2023-10-08T10:04:34;4.60;;;1.00;;
52858;SDS011;38721;53.098;6.596;2023-10-08T10:07:09;2.72;;;1.15;;
52858;SDS011;38721;53.098;6.596;2023-10-08T10:09:42;1.73;;;0.80;;
52858;SDS011;38721;53.098;6.596;2023-10-08T10:12:10;6.85;;;1.33;;
52858;SDS011;38721;53.098;6.596;2023-10-08T10:14:44;4.53;;;1.35;;
52858;SDS011;38721;53.098;6.596;2023-10-08T10:17:15;4.20;;;1.30;;
52858;SDS011;38721;53.098;6.596;2023-10-08T10:19:49;8.77;;;1.35;;
52858;SDS011;38721;53.098;6.596;2023-10-08T10:22:34;6.20;;;1.48;;
52858;SDS011;38721;53.098;6.596;2023-10-08T10:25:04;2.33;;;0.98;;
52858;SDS011;38721;53.098;6.596;2023-10-08T10:28:22;3.88;;;1.30;;
52858;SDS011;38721;53.098;6.596;2023-10-08T10:30:29;5.60;;;1.02;;
52858;SDS011;38721;53.098;6.596;2023-10-08T10:32:55;6.30;;;1.50;;
52858;SDS011;38721;53.098;6.596;2023-10-08T10:35:25;5.63;;;1.20;;
52858;SDS011;38721;53.098;6.596;2023-10-08T10:37:52;8.07;;;1.50;;
52858;SDS011;38721;53.098;6.596;2023-10-08T10:40:21;4.57;;;1.25;;
52858;SDS011;38721;53.098;6.596;2023-10-08T10:43:16;3.63;;;1.35;;
52858;SDS011;38721;53.098;6.596;2023-10-08T10:45:45;6.05;;;1.25;;
52858;SDS011;38721;53.098;6.596;2023-10-08T10:48:12;3.58;;;1.60;;
52858;SDS011;38721;53.098;6.596;2023-10-08T10:50:39;4.93;;;1.20;;
52858;SDS011;38721;53.098;6.596;2023-10-08T10:53:24;4.47;;;1.80;;
52858;SDS011;38721;53.098;6.596;2023-10-08T10:55:52;6.18;;;1.35;;
52858;SDS011;38721;53.098;6.596;2023-10-08T10:58:34;7.38;;;1.45;;
52858;SDS011;38721;53.098;6.596;2023-10-08T11:01:04;4.85;;;1.35;;
52858;SDS011;38721;53.098;6.596;2023-10-08T11:03:48;7.45;;;1.45;;
52858;SDS011;38721;53.098;6.596;2023-10-08T11:06:17;5.20;;;1.55;;
52858;SDS011;38721;53.098;6.596;2023-10-08T11:08:53;5.78;;;1.30;;
52858;SDS011;38721;53.098;6.596;2023-10-08T11:11:30;8.20;;;1.40;;
52858;SDS011;38721;53.098;6.596;2023-10-08T11:13:56;6.68;;;1.17;;
52858;SDS011;38721;53.098;6.596;2023-10-08T11:16:25;6.13;;;1.27;;
52858;SDS011;38721;53.098;6.596;2023-10-08T11:18:52;3.60;;;1.10;;
52858;SDS011;38721;53.098;6.596;2023-10-08T11:21:23;7.65;;;1.50;;
52858;SDS011;38721;53.098;6.596;2023-10-08T11:23:49;6.30;;;1.52;;
52858;SDS011;38721;53.098;6.596;2023-10-08T11:26:24;6.20;;;1.23;;
52858;SDS011;38721;53.098;6.596;2023-10-08T11:29:04;5.43;;;1.77;;
52858;SDS011;38721;53.098;6.596;2023-10-08T11:31:39;5.35;;;0.98;;
52858;SDS011;38721;53.098;6.596;2023-10-08T11:34:05;6.72;;;1.55;;
52858;SDS011;38721;53.098;6.596;2023-10-08T11:36:35;6.43;;;1.25;;
52858;SDS011;38721;53.098;6.596;2023-10-08T11:39:13;7.50;;;1.70;;
52858;SDS011;38721;53.098;6.596;2023-10-08T11:42:02;6.40;;;1.17;;
52858;SDS011;38721;53.098;6.596;2023-10-08T11:44:32;8.95;;;2.00;;
52858;SDS011;38721;53.098;6.596;2023-10-08T11:47:01;6.72;;;1.95;;
52858;SDS011;38721;53.098;6.596;2023-10-08T11:49:38;7.03;;;1.10;;
52858;SDS011;38721;53.098;6.596;2023-10-08T11:52:12;5.22;;;1.27;;
52858;SDS011;38721;53.098;6.596;2023-10-08T11:54:40;4.63;;;1.17;;
52858;SDS011;38721;53.098;6.596;2023-10-08T11:57:07;5.70;;;1.10;;
52858;SDS011;38721;53.098;6.596;2023-10-08T11:59:34;8.02;;;1.20;;
52858;SDS011;38721;53.098;6.596;2023-10-08T12:02:05;5.88;;;1.58;;
52858;SDS011;38721;53.098;6.596;2023-10-08T12:04:31;3.75;;;1.20;;
52858;SDS011;38721;53.098;6.596;2023-10-08T12:06:57;6.00;;;1.42;;
52858;SDS011;38721;53.098;6.596;2023-10-08T12:09:27;6.82;;;1.33;;
52858;SDS011;38721;53.098;6.596;2023-10-08T12:11:52;5.03;;;1.40;;
52858;SDS011;38721;53.098;6.596;2023-10-08T12:14:19;4.45;;;1.40;;
52858;SDS011;38721;53.098;6.596;2023-10-08T12:16:44;7.40;;;1.20;;
52858;SDS011;38721;53.098;6.596;2023-10-08T12:19:10;7.03;;;1.80;;
52858;SDS011;38721;53.098;6.596;2023-10-08T12:21:43;8.18;;;1.58;;
52858;SDS011;38721;53.098;6.596;2023-10-08T12:24:13;7.57;;;1.83;;
52858;SDS011;38721;53.098;6.596;2023-10-08T12:26:39;5.03;;;1.00;;
52858;SDS011;38721;53.098;6.596;2023-10-08T12:29:14;6.35;;;1.83;;
52858;SDS011;38721;53.098;6.596;2023-10-08T12:31:42;4.57;;;0.98;;
52858;SDS011;38721;53.098;6.596;2023-10-08T12:34:12;7.72;;;1.50;;
52858;SDS011;38721;53.098;6.596;2023-10-08T12:36:38;5.47;;;1.42;;
52858;SDS011;38721;53.098;6.596;2023-10-08T12:39:07;5.38;;;1.42;;
52858;SDS011;38721;53.098;6.596;2023-10-08T12:41:41;2.97;;;1.20;;
52858;SDS011;38721;53.098;6.596;2023-10-08T12:44:09;5.20;;;1.10;;
52858;SDS011;38721;53.098;6.596;2023-10-08T12:46:35;3.50;;;1.23;;
52858;SDS011;38721;53.098;6.596;2023-10-08T12:49:01;3.33;;;1.08;;
52858;SDS011;38721;53.098;6.596;2023-10-08T12:51:28;8.50;;;1.63;;
52858;SDS011;38721;53.098;6.596;2023-10-08T12:53:57;5.93;;;1.52;;
52858;SDS011;38721;53.098;6.596;2023-10-08T12:56:28;5.20;;;1.30;;
52858;SDS011;38721;53.098;6.596;2023-10-08T12:59:00;6.68;;;1.27;;
52858;SDS011;38721;53.098;6.596;2023-10-08T13:01:31;7.75;;;1.25;;
52858;SDS011;38721;53.098;6.596;2023-10-08T13:03:57;4.18;;;1.13;;
52858;SDS011;38721;53.098;6.596;2023-10-08T13:06:26;6.70;;;1.80;;
52858;SDS011;38721;53.098;6.596;2023-10-08T13:08:56;3.72;;;0.85;;
52858;SDS011;38721;53.098;6.596;2023-10-08T13:11:34;5.50;;;1.70;;
52858;SDS011;38721;53.098;6.596;2023-10-08T13:14:00;2.60;;;1.10;;
52858;SDS011;38721;53.098;6.596;2023-10-08T13:16:26;9.15;;;1.10;;
52858;SDS011;38721;53.098;6.596;2023-10-08T13:18:56;5.25;;;1.55;;
52858;SDS011;38721;53.098;6.596;2023-10-08T13:21:24;5.93;;;1.30;;
52858;SDS011;38721;53.098;6.596;2023-10-08T13:23:50;11.48;;;1.48;;
52858;SDS011;38721;53.098;6.596;2023-10-08T13:26:16;11.95;;;1.38;;
52858;SDS011;38721;53.098;6.596;2023-10-08T13:28:43;9.13;;;1.52;;
52858;SDS011;38721;53.098;6.596;2023-10-08T13:31:09;6.88;;;1.30;;
52858;SDS011;38721;53.098;6.596;2023-10-08T13:33:39;6.93;;;1.85;;
52858;SDS011;38721;53.098;6.596;2023-10-08T13:36:11;3.83;;;1.00;;
52858;SDS011;38721;53.098;6.596;2023-10-08T13:38:38;5.45;;;1.58;;
52858;SDS011;38721;53.098;6.596;2023-10-08T13:41:06;4.32;;;0.93;;
52858;SDS011;38721;53.098;6.596;2023-10-08T13:43:43;9.73;;;1.58;;
52858;SDS011;38721;53.098;6.596;2023-10-08T13:46:17;5.78;;;1.00;;
52858;SDS011;38721;53.098;6.596;2023-10-08T13:48:46;5.70;;;1.02;;
52858;SDS011;38721;53.098;6.596;2023-10-08T13:51:15;4.07;;;1.02;;
52858;SDS011;38721;53.098;6.596;2023-10-08T13:53:49;4.32;;;1.20;;
52858;SDS011;38721;53.098;6.596;2023-10-08T13:56:19;6.45;;;1.42;;
52858;SDS011;38721;53.098;6.596;2023-10-08T13:58:56;6.13;;;1.13;;
52858;SDS011;38721;53.098;6.596;2023-10-08T14:01:38;6.05;;;1.48;;
52858;SDS011;38721;53.098;6.596;2023-10-08T14:04:08;6.60;;;1.30;;
52858;SDS011;38721;53.098;6.596;2023-10-08T14:06:34;3.22;;;1.13;;
52858;SDS011;38721;53.098;6.596;2023-10-08T14:09:07;3.20;;;1.38;;
52858;SDS011;38721;53.098;6.596;2023-10-08T14:11:36;4.43;;;1.15;;
52858;SDS011;38721;53.098;6.596;2023-10-08T14:14:02;4.80;;;1.83;;
52858;SDS011;38721;53.098;6.596;2023-10-08T14:16:35;3.65;;;1.08;;
52858;SDS011;38721;53.098;6.596;2023-10-08T14:19:02;7.97;;;1.40;;
52858;SDS011;38721;53.098;6.596;2023-10-08T14:21:30;6.10;;;1.13;;
52858;SDS011;38721;53.098;6.596;2023-10-08T14:23:57;4.68;;;1.40;;
52858;SDS011;38721;53.098;6.596;2023-10-08T14:26:31;5.07;;;1.48;;
52858;SDS011;38721;53.098;6.596;2023-10-08T14:29:01;8.38;;;2.00;;
52858;SDS011;38721;53.098;6.596;2023-10-08T14:31:35;6.68;;;1.80;;
52858;SDS011;38721;53.098;6.596;2023-10-08T14:34:07;7.07;;;1.33;;
52858;SDS011;38721;53.098;6.596;2023-10-08T14:36:42;6.10;;;1.50;;
52858;SDS011;38721;53.098;6.596;2023-10-08T14:39:30;6.55;;;1.10;;
52858;SDS011;38721;53.098;6.596;2023-10-08T14:42:15;8.98;;;1.48;;
52858;SDS011;38721;53.098;6.596;2023-10-08T14:45:00;6.00;;;1.60;;
52858;SDS011;38721;53.098;6.596;2023-10-08T14:47:27;2.95;;;1.23;;
52858;SDS011;38721;53.098;6.596;2023-10-08T14:49:53;6.10;;;2.05;;
52858;SDS011;38721;53.098;6.596;2023-10-08T14:52:19;2.58;;;0.98;;
52858;SDS011;38721;53.098;6.596;2023-10-08T14:54:45;6.50;;;1.77;;
52858;SDS011;38721;53.098;6.596;2023-10-08T14:57:11;9.20;;;1.60;;
52858;SDS011;38721;53.098;6.596;2023-10-08T14:59:39;5.60;;;1.50;;
52858;SDS011;38721;53.098;6.596;2023-10-08T15:02:08;5.13;;;1.60;;
52858;SDS011;38721;53.098;6.596;2023-10-08T15:04:37;4.78;;;1.50;;
52858;SDS011;38721;53.098;6.596;2023-10-08T15:07:05;6.18;;;1.63;;
52858;SDS011;38721;53.098;6.596;2023-10-08T15:09:36;4.57;;;1.70;;
52858;SDS011;38721;53.098;6.596;2023-10-08T15:12:02;3.95;;;1.63;;
52858;SDS011;38721;53.098;6.596;2023-10-08T15:14:28;5.95;;;1.40;;
52858;SDS011;38721;53.098;6.596;2023-10-08T15:16:54;4.75;;;1.30;;
52858;SDS011;38721;53.098;6.596;2023-10-08T15:19:22;5.03;;;1.55;;
52858;SDS011;38721;53.098;6.596;2023-10-08T15:21:48;7.25;;;1.88;;
52858;SDS011;38721;53.098;6.596;2023-10-08T15:24:18;4.68;;;1.60;;
52858;SDS011;38721;53.098;6.596;2023-10-08T15:26:48;3.90;;;1.38;;
52858;SDS011;38721;53.098;6.596;2023-10-08T15:29:17;4.85;;;1.10;;
52858;SDS011;38721;53.098;6.596;2023-10-08T15:31:47;8.50;;;1.75;;